sensor_id;sensor_type;location;lat;lon;timestamp;pressure;altitude;pressure_sealevel;temperature;humidity
9525;BME280;15940;48.734;9.112;2022-12-05T00:01:27;96346.31;;;1.32;87.98
9525;BME280;15940;48.734;9.112;2022-12-05T00:03:57;96340.78;;;1.26;88.07
9525;BME280;15940;48.734;9.112;2022-12-05T00:06:27;96346.72;;;1.30;88.85
9525;BME280;15940;48.734;9.112;2022-12-05T00:08:57;96331.47;;;1.43;88.92
9525;BME280;15940;48.734;9.112;2022-12-05T00:11:27;96343.97;;;1.34;88.87
9525;BME280;15940;48.734;9.112;2022-12-05T00:13:56;96353.59;;;1.19;88.54
9525;BME280;15940;48.734;9.112;2022-12-05T00:16:26;96336.38;;;1.32;89.92
9525;BME280;15940;48.734;9.112;2022-12-05T00:18:54;96336.72;;;1.34;89.41
9525;BME280;15940;48.734;9.112;2022-12-05T00:21:23;96343.66;;;1.19;88.35
9525;BME280;15940;48.734;9.112;2022-12-05T00:23:52;96335.75;;;1.28;88.39
9525;BME280;15940;48.734;9.112;2022-12-05T00:26:21;96339.25;;;1.38;89.66
9525;BME280;15940;48.734;9.112;2022-12-05T00:28:49;96342.53;;;1.55;89.37
9525;BME280;15940;48.734;9.112;2022-12-05T00:31:18;96347.00;;;1.58;87.74
9525;BME280;15940;48.734;9.112;2022-12-05T00:33:47;96355.53;;;1.65;88.95
9525;BME280;15940;48.734;9.112;2022-12-05T00:36:16;96345.63;;;1.53;87.94
9525;BME280;15940;48.734;9.112;2022-12-05T00:38:43;96338.47;;;1.50;87.81
9525;BME280;15940;48.734;9.112;2022-12-05T00:41:13;96351.41;;;1.39;88.02
9525;BME280;15940;48.734;9.112;2022-12-05T00:43:41;96351.13;;;1.24;88.02
9525;BME280;15940;48.734;9.112;2022-12-05T00:46:12;96349.75;;;1.20;89.60
9525;BME280;15940;48.734;9.112;2022-12-05T00:48:40;96341.94;;;1.25;88.65
9525;BME280;15940;48.734;9.112;2022-12-05T00:51:10;96357.66;;;1.58;89.65
9525;BME280;15940;48.734;9.112;2022-12-05T00:53:38;96342.47;;;1.67;89.63
9525;BME280;15940;48.734;9.112;2022-12-05T00:56:07;96361.47;;;1.82;89.30
9525;BME280;15940;48.734;9.112;2022-12-05T00:58:36;96370.47;;;1.97;87.73
9525;BME280;15940;48.734;9.112;2022-12-05T01:01:10;96366.56;;;2.11;87.29
9525;BME280;15940;48.734;9.112;2022-12-05T01:03:38;96376.13;;;1.99;86.48
9525;BME280;15940;48.734;9.112;2022-12-05T01:06:06;96380.84;;;1.95;86.25
9525;BME280;15940;48.734;9.112;2022-12-05T01:08:34;96388.06;;;1.73;86.08
9525;BME280;15940;48.734;9.112;2022-12-05T01:11:02;96383.63;;;1.57;86.62
9525;BME280;15940;48.734;9.112;2022-12-05T01:13:30;96379.06;;;1.45;88.33
9525;BME280;15940;48.734;9.112;2022-12-05T01:15:57;96399.53;;;1.48;88.70
9525;BME280;15940;48.734;9.112;2022-12-05T01:18:26;96399.88;;;1.37;88.31
9525;BME280;15940;48.734;9.112;2022-12-05T01:20:53;96398.78;;;1.48;88.45
9525;BME280;15940;48.734;9.112;2022-12-05T01:23:21;96389.31;;;1.34;87.93
9525;BME280;15940;48.734;9.112;2022-12-05T01:25:51;96387.75;;;1.24;88.97
9525;BME280;15940;48.734;9.112;2022-12-05T01:28:18;96397.53;;;1.27;88.76
9525;BME280;15940;48.734;9.112;2022-12-05T01:30:47;96393.25;;;1.29;89.11
9525;BME280;15940;48.734;9.112;2022-12-05T01:33:16;96387.63;;;1.27;88.87
9525;BME280;15940;48.734;9.112;2022-12-05T01:35:44;96388.56;;;1.21;88.35
9525;BME280;15940;48.734;9.112;2022-12-05T01:38:12;96385.25;;;1.55;90.21
9525;BME280;15940;48.734;9.112;2022-12-05T01:40:39;96394.41;;;1.54;87.69
9525;BME280;15940;48.734;9.112;2022-12-05T01:43:13;96401.91;;;1.46;87.97
9525;BME280;15940;48.734;9.112;2022-12-05T01:45:43;96402.97;;;1.49;88.88
9525;BME280;15940;48.734;9.112;2022-12-05T01:48:13;96414.31;;;1.27;87.88
9525;BME280;15940;48.734;9.112;2022-12-05T01:50:43;96431.25;;;1.21;88.58
9525;BME280;15940;48.734;9.112;2022-12-05T01:53:11;96427.31;;;1.12;88.87
9525;BME280;15940;48.734;9.112;2022-12-05T01:55:38;96430.44;;;1.24;89.33
9525;BME280;15940;48.734;9.112;2022-12-05T01:58:06;96417.19;;;1.20;89.15
9525;BME280;15940;48.734;9.112;2022-12-05T02:00:35;96415.16;;;1.11;89.06
9525;BME280;15940;48.734;9.112;2022-12-05T02:03:05;96414.31;;;1.27;90.79
9525;BME280;15940;48.734;9.112;2022-12-05T02:05:35;96410.56;;;1.37;89.71
9525;BME280;15940;48.734;9.112;2022-12-05T02:08:06;96427.84;;;1.20;89.27
9525;BME280;15940;48.734;9.112;2022-12-05T02:10:37;96430.94;;;1.06;89.55
9525;BME280;15940;48.734;9.112;2022-12-05T02:13:16;96432.88;;;1.05;90.99
9525;BME280;15940;48.734;9.112;2022-12-05T02:15:56;96439.81;;;1.28;90.42
9525;BME280;15940;48.734;9.112;2022-12-05T02:18:40;96443.09;;;1.20;90.26
9525;BME280;15940;48.734;9.112;2022-12-05T02:21:54;96439.19;;;1.24;90.58
9525;BME280;15940;48.734;9.112;2022-12-05T02:25:10;96436.28;;;1.44;90.49
9525;BME280;15940;48.734;9.112;2022-12-05T02:28:00;96453.03;;;1.32;89.86
9525;BME280;15940;48.734;9.112;2022-12-05T02:30:38;96463.16;;;1.50;90.19
9525;BME280;15940;48.734;9.112;2022-12-05T02:33:12;96465.72;;;1.40;89.53
9525;BME280;15940;48.734;9.112;2022-12-05T02:35:51;96472.78;;;1.34;89.84
9525;BME280;15940;48.734;9.112;2022-12-05T02:38:27;96467.00;;;1.23;90.01
9525;BME280;15940;48.734;9.112;2022-12-05T02:41:05;96468.50;;;1.11;90.21
9525;BME280;15940;48.734;9.112;2022-12-05T02:43:39;96484.19;;;1.09;90.68
9525;BME280;15940;48.734;9.112;2022-12-05T02:46:13;96473.50;;;1.09;91.20
9525;BME280;15940;48.734;9.112;2022-12-05T02:48:44;96477.28;;;1.25;92.19
9525;BME280;15940;48.734;9.112;2022-12-05T02:51:16;96487.72;;;1.32;91.93
9525;BME280;15940;48.734;9.112;2022-12-05T02:53:45;96474.28;;;1.35;91.29
9525;BME280;15940;48.734;9.112;2022-12-05T02:56:14;96474.38;;;1.32;91.71
9525;BME280;15940;48.734;9.112;2022-12-05T02:58:47;96475.22;;;1.41;92.20
9525;BME280;15940;48.734;9.112;2022-12-05T03:01:19;96476.06;;;1.51;91.66
9525;BME280;15940;48.734;9.112;2022-12-05T03:03:47;96456.88;;;1.56;91.64
9525;BME280;15940;48.734;9.112;2022-12-05T03:06:18;96455.66;;;1.70;91.82
9525;BME280;15940;48.734;9.112;2022-12-05T03:08:48;96460.91;;;1.61;90.41
9525;BME280;15940;48.734;9.112;2022-12-05T03:11:16;96445.31;;;1.59;91.35
9525;BME280;15940;48.734;9.112;2022-12-05T03:13:47;96443.22;;;1.54;90.54
9525;BME280;15940;48.734;9.112;2022-12-05T03:16:22;96439.25;;;1.59;91.26
9525;BME280;15940;48.734;9.112;2022-12-05T03:18:54;96440.09;;;1.68;91.05
9525;BME280;15940;48.734;9.112;2022-12-05T03:21:29;96435.25;;;1.76;90.79
9525;BME280;15940;48.734;9.112;2022-12-05T03:24:01;96445.75;;;1.58;90.20
9525;BME280;15940;48.734;9.112;2022-12-05T03:26:36;96450.22;;;1.61;90.40
9525;BME280;15940;48.734;9.112;2022-12-05T03:29:24;96439.06;;;1.53;90.24
9525;BME280;15940;48.734;9.112;2022-12-05T03:32:06;96446.53;;;1.46;90.51
9525;BME280;15940;48.734;9.112;2022-12-05T03:34:49;96454.00;;;1.38;91.23
9525;BME280;15940;48.734;9.112;2022-12-05T03:37:26;96449.84;;;1.37;91.04
9525;BME280;15940;48.734;9.112;2022-12-05T03:40:05;96452.38;;;1.40;91.86
9525;BME280;15940;48.734;9.112;2022-12-05T03:42:36;96459.34;;;1.38;91.52
9525;BME280;15940;48.734;9.112;2022-12-05T03:45:09;96455.50;;;1.39;91.84
9525;BME280;15940;48.734;9.112;2022-12-05T03:47:45;96445.97;;;1.51;92.17
9525;BME280;15940;48.734;9.112;2022-12-05T03:50:19;96454.16;;;1.82;91.85
9525;BME280;15940;48.734;9.112;2022-12-05T03:52:53;96455.13;;;1.75;91.22
9525;BME280;15940;48.734;9.112;2022-12-05T03:55:23;96457.59;;;1.69;90.97
9525;BME280;15940;48.734;9.112;2022-12-05T03:57:56;96449.38;;;1.64;90.95
9525;BME280;15940;48.734;9.112;2022-12-05T04:00:26;96450.03;;;1.55;90.92
9525;BME280;15940;48.734;9.112;2022-12-05T04:02:58;96455.81;;;1.54;91.06
9525;BME280;15940;48.734;9.112;2022-12-05T04:05:33;96438.22;;;1.43;91.22
9525;BME280;15940;48.734;9.112;2022-12-05T04:08:06;96437.13;;;1.54;91.68
9525;BME280;15940;48.734;9.112;2022-12-05T04:10:36;96446.91;;;1.69;91.34
9525;BME280;15940;48.734;9.112;2022-12-05T04:13:17;96448.75;;;1.73;90.99
9525;BME280;15940;48.734;9.112;2022-12-05T04:15:49;96440.94;;;1.65;90.85
9525;BME280;15940;48.734;9.112;2022-12-05T04:18:37;96445.13;;;1.54;91.16
9525;BME280;15940;48.734;9.112;2022-12-05T04:21:07;96462.41;;;1.49;91.04
9525;BME280;15940;48.734;9.112;2022-12-05T04:23:52;96462.63;;;1.42;91.29
9525;BME280;15940;48.734;9.112;2022-12-05T04:26:33;96456.22;;;1.39;91.91
9525;BME280;15940;48.734;9.112;2022-12-05T04:29:07;96448.44;;;1.45;91.88
9525;BME280;15940;48.734;9.112;2022-12-05T04:31:42;96462.41;;;1.49;92.16
9525;BME280;15940;48.734;9.112;2022-12-05T04:34:13;96472.66;;;1.63;92.06
9525;BME280;15940;48.734;9.112;2022-12-05T04:36:45;96471.47;;;1.90;92.80
9525;BME280;15940;48.734;9.112;2022-12-05T04:39:16;96472.69;;;2.11;91.74
9525;BME280;15940;48.734;9.112;2022-12-05T04:41:50;96469.88;;;2.14;91.20
9525;BME280;15940;48.734;9.112;2022-12-05T04:44:24;96471.03;;;2.26;90.65
9525;BME280;15940;48.734;9.112;2022-12-05T04:46:54;96471.50;;;2.12;89.28
9525;BME280;15940;48.734;9.112;2022-12-05T04:49:26;96475.06;;;1.96;89.72
9525;BME280;15940;48.734;9.112;2022-12-05T04:51:58;96470.75;;;2.11;90.18
9525;BME280;15940;48.734;9.112;2022-12-05T04:54:31;96478.97;;;2.17;90.28
9525;BME280;15940;48.734;9.112;2022-12-05T04:57:06;96479.69;;;2.30;89.63
9525;BME280;15940;48.734;9.112;2022-12-05T04:59:36;96489.56;;;2.20;88.66
9525;BME280;15940;48.734;9.112;2022-12-05T05:02:07;96489.78;;;2.13;89.24
9525;BME280;15940;48.734;9.112;2022-12-05T05:04:39;96486.97;;;2.17;89.20
9525;BME280;15940;48.734;9.112;2022-12-05T05:07:09;96484.06;;;2.24;89.52
9525;BME280;15940;48.734;9.112;2022-12-05T05:09:37;96488.22;;;2.38;89.08
9525;BME280;15940;48.734;9.112;2022-12-05T05:12:06;96497.16;;;2.44;88.58
9525;BME280;15940;48.734;9.112;2022-12-05T05:14:33;96489.94;;;2.32;88.38
9525;BME280;15940;48.734;9.112;2022-12-05T05:17:01;96493.34;;;2.32;88.75
9525;BME280;15940;48.734;9.112;2022-12-05T05:19:28;96497.81;;;2.48;88.96
9525;BME280;15940;48.734;9.112;2022-12-05T05:21:56;96507.44;;;2.67;88.05
9525;BME280;15940;48.734;9.112;2022-12-05T05:24:23;96512.81;;;2.67;88.02
9525;BME280;15940;48.734;9.112;2022-12-05T05:26:51;96510.66;;;2.84;87.20
9525;BME280;15940;48.734;9.112;2022-12-05T05:29:18;96522.16;;;2.84;87.23
9525;BME280;15940;48.734;9.112;2022-12-05T05:31:45;96530.50;;;2.74;87.38
9525;BME280;15940;48.734;9.112;2022-12-05T05:34:12;96523.59;;;2.64;86.79
9525;BME280;15940;48.734;9.112;2022-12-05T05:36:41;96523.66;;;2.51;86.24
9525;BME280;15940;48.734;9.112;2022-12-05T05:39:13;96523.41;;;2.23;86.40
9525;BME280;15940;48.734;9.112;2022-12-05T05:41:41;96522.97;;;2.25;89.33
9525;BME280;15940;48.734;9.112;2022-12-05T05:44:09;96528.66;;;2.14;87.66
9525;BME280;15940;48.734;9.112;2022-12-05T05:46:36;96535.06;;;2.29;89.40
9525;BME280;15940;48.734;9.112;2022-12-05T05:49:04;96534.06;;;2.36;88.87
9525;BME280;15940;48.734;9.112;2022-12-05T05:51:31;96543.91;;;2.39;87.77
9525;BME280;15940;48.734;9.112;2022-12-05T05:53:59;96531.88;;;2.22;87.89
9525;BME280;15940;48.734;9.112;2022-12-05T05:56:28;96528.56;;;2.05;87.91
9525;BME280;15940;48.734;9.112;2022-12-05T05:58:57;96523.66;;;2.04;88.55
9525;BME280;15940;48.734;9.112;2022-12-05T06:01:24;96526.97;;;2.20;88.79
9525;BME280;15940;48.734;9.112;2022-12-05T06:03:51;96515.41;;;2.23;88.59
9525;BME280;15940;48.734;9.112;2022-12-05T06:06:19;96505.16;;;2.22;88.74
9525;BME280;15940;48.734;9.112;2022-12-05T06:08:47;96523.72;;;2.25;88.47
9525;BME280;15940;48.734;9.112;2022-12-05T06:11:17;96525.38;;;2.10;87.93
9525;BME280;15940;48.734;9.112;2022-12-05T06:13:47;96534.31;;;2.16;88.35
9525;BME280;15940;48.734;9.112;2022-12-05T06:16:16;96536.94;;;1.94;88.11
9525;BME280;15940;48.734;9.112;2022-12-05T06:18:44;96530.22;;;1.77;88.26
9525;BME280;15940;48.734;9.112;2022-12-05T06:21:11;96537.56;;;1.86;90.56
9525;BME280;15940;48.734;9.112;2022-12-05T06:23:38;96544.59;;;2.05;90.11
9525;BME280;15940;48.734;9.112;2022-12-05T06:26:10;96558.25;;;2.33;89.37
9525;BME280;15940;48.734;9.112;2022-12-05T06:28:37;96573.00;;;2.24;87.06
9525;BME280;15940;48.734;9.112;2022-12-05T06:31:11;96568.47;;;1.99;87.90
9525;BME280;15940;48.734;9.112;2022-12-05T06:33:38;96561.19;;;1.87;88.65
9525;BME280;15940;48.734;9.112;2022-12-05T06:36:08;96575.09;;;1.82;88.98
9525;BME280;15940;48.734;9.112;2022-12-05T06:38:36;96588.63;;;1.88;89.63
9525;BME280;15940;48.734;9.112;2022-12-05T06:41:06;96581.16;;;1.83;89.64
9525;BME280;15940;48.734;9.112;2022-12-05T06:43:33;96579.03;;;1.78;89.41
9525;BME280;15940;48.734;9.112;2022-12-05T06:46:04;96580.19;;;1.89;90.59
9525;BME280;15940;48.734;9.112;2022-12-05T06:48:33;96584.28;;;1.81;89.70
9525;BME280;15940;48.734;9.112;2022-12-05T06:51:00;96591.53;;;1.93;90.13
9525;BME280;15940;48.734;9.112;2022-12-05T06:53:28;96588.00;;;1.84;89.40
9525;BME280;15940;48.734;9.112;2022-12-05T06:55:56;96587.47;;;1.89;90.56
9525;BME280;15940;48.734;9.112;2022-12-05T06:58:23;96588.66;;;2.00;90.39
9525;BME280;15940;48.734;9.112;2022-12-05T07:00:50;96586.31;;;1.90;89.45
9525;BME280;15940;48.734;9.112;2022-12-05T07:03:37;96596.75;;;1.84;89.55
9525;BME280;15940;48.734;9.112;2022-12-05T07:06:05;96590.03;;;1.92;89.97
9525;BME280;15940;48.734;9.112;2022-12-05T07:08:34;96587.88;;;1.87;90.13
9525;BME280;15940;48.734;9.112;2022-12-05T07:11:01;96576.56;;;1.83;90.06
9525;BME280;15940;48.734;9.112;2022-12-05T07:13:28;96584.16;;;2.10;91.25
9525;BME280;15940;48.734;9.112;2022-12-05T07:15:55;96596.16;;;2.53;90.27
9525;BME280;15940;48.734;9.112;2022-12-05T07:18:23;96613.03;;;2.63;88.78
9525;BME280;15940;48.734;9.112;2022-12-05T07:20:57;96621.53;;;2.48;87.74
9525;BME280;15940;48.734;9.112;2022-12-05T07:23:25;96624.94;;;2.49;88.14
9525;BME280;15940;48.734;9.112;2022-12-05T07:25:52;96623.44;;;2.48;88.34
9525;BME280;15940;48.734;9.112;2022-12-05T07:28:20;96621.28;;;2.55;88.66
9525;BME280;15940;48.734;9.112;2022-12-05T07:30:47;96621.78;;;2.63;87.81
9525;BME280;15940;48.734;9.112;2022-12-05T07:33:14;96623.84;;;2.59;87.25
9525;BME280;15940;48.734;9.112;2022-12-05T07:35:41;96622.44;;;2.67;88.30
9525;BME280;15940;48.734;9.112;2022-12-05T07:38:09;96622.63;;;2.73;87.98
9525;BME280;15940;48.734;9.112;2022-12-05T07:40:36;96614.09;;;2.65;87.37
9525;BME280;15940;48.734;9.112;2022-12-05T07:43:03;96621.78;;;2.76;88.24
9525;BME280;15940;48.734;9.112;2022-12-05T07:45:33;96605.09;;;2.72;87.46
9525;BME280;15940;48.734;9.112;2022-12-05T07:48:00;96603.38;;;2.78;87.94
9525;BME280;15940;48.734;9.112;2022-12-05T07:50:27;96612.44;;;2.80;87.61
9525;BME280;15940;48.734;9.112;2022-12-05T07:52:54;96624.03;;;2.99;88.15
9525;BME280;15940;48.734;9.112;2022-12-05T07:55:22;96618.47;;;3.06;87.74
9525;BME280;15940;48.734;9.112;2022-12-05T07:57:49;96632.03;;;3.34;87.60
9525;BME280;15940;48.734;9.112;2022-12-05T08:00:18;96631.97;;;3.47;87.11
9525;BME280;15940;48.734;9.112;2022-12-05T08:02:45;96636.63;;;3.55;86.00
9525;BME280;15940;48.734;9.112;2022-12-05T08:05:12;96626.13;;;3.39;84.90
9525;BME280;15940;48.734;9.112;2022-12-05T08:07:40;96628.47;;;3.37;85.33
9525;BME280;15940;48.734;9.112;2022-12-05T08:10:07;96635.31;;;3.38;85.90
9525;BME280;15940;48.734;9.112;2022-12-05T08:12:36;96635.63;;;3.40;84.82
9525;BME280;15940;48.734;9.112;2022-12-05T08:15:05;96632.09;;;3.21;85.33
9525;BME280;15940;48.734;9.112;2022-12-05T08:17:32;96641.34;;;3.07;85.68
9525;BME280;15940;48.734;9.112;2022-12-05T08:19:59;96636.75;;;3.08;86.67
9525;BME280;15940;48.734;9.112;2022-12-05T08:22:27;96649.31;;;2.98;86.47
9525;BME280;15940;48.734;9.112;2022-12-05T08:24:53;96648.69;;;2.94;87.40
9525;BME280;15940;48.734;9.112;2022-12-05T08:27:20;96654.22;;;3.00;87.22
9525;BME280;15940;48.734;9.112;2022-12-05T08:29:49;96652.81;;;3.08;86.97
9525;BME280;15940;48.734;9.112;2022-12-05T08:32:16;96657.84;;;3.06;86.85
9525;BME280;15940;48.734;9.112;2022-12-05T08:34:43;96655.28;;;3.02;86.93
9525;BME280;15940;48.734;9.112;2022-12-05T08:37:10;96653.16;;;2.97;86.60
9525;BME280;15940;48.734;9.112;2022-12-05T08:39:37;96656.91;;;3.00;87.01
9525;BME280;15940;48.734;9.112;2022-12-05T08:42:04;96667.28;;;2.98;86.78
9525;BME280;15940;48.734;9.112;2022-12-05T08:44:31;96670.28;;;3.00;87.47
9525;BME280;15940;48.734;9.112;2022-12-05T08:47:00;96673.25;;;3.02;87.49
9525;BME280;15940;48.734;9.112;2022-12-05T08:49:27;96671.97;;;3.06;87.56
9525;BME280;15940;48.734;9.112;2022-12-05T08:51:54;96679.25;;;3.06;87.22
9525;BME280;15940;48.734;9.112;2022-12-05T08:54:21;96671.53;;;3.08;86.65
9525;BME280;15940;48.734;9.112;2022-12-05T08:56:50;96664.47;;;3.14;86.93
9525;BME280;15940;48.734;9.112;2022-12-05T08:59:17;96658.75;;;3.25;87.14
9525;BME280;15940;48.734;9.112;2022-12-05T09:01:44;96666.16;;;3.42;87.38
9525;BME280;15940;48.734;9.112;2022-12-05T09:04:12;96673.88;;;3.62;85.99
9525;BME280;15940;48.734;9.112;2022-12-05T09:06:40;96677.16;;;3.66;85.24
9525;BME280;15940;48.734;9.112;2022-12-05T09:09:09;96682.22;;;3.64;84.79
9525;BME280;15940;48.734;9.112;2022-12-05T09:11:39;96681.53;;;3.73;85.91
9525;BME280;15940;48.734;9.112;2022-12-05T09:14:08;96698.50;;;3.70;84.81
9525;BME280;15940;48.734;9.112;2022-12-05T09:16:39;96692.50;;;3.66;84.82
9525;BME280;15940;48.734;9.112;2022-12-05T09:19:13;96697.59;;;3.73;85.48
9525;BME280;15940;48.734;9.112;2022-12-05T09:21:41;96708.31;;;3.73;85.31
9525;BME280;15940;48.734;9.112;2022-12-05T09:24:10;96701.59;;;3.90;86.00
9525;BME280;15940;48.734;9.112;2022-12-05T09:26:38;96713.16;;;4.09;84.67
9525;BME280;15940;48.734;9.112;2022-12-05T09:29:05;96703.22;;;4.19;85.01
9525;BME280;15940;48.734;9.112;2022-12-05T09:31:32;96708.00;;;4.24;84.32
9525;BME280;15940;48.734;9.112;2022-12-05T09:34:00;96709.50;;;4.25;84.25
9525;BME280;15940;48.734;9.112;2022-12-05T09:36:30;96717.47;;;4.38;83.53
9525;BME280;15940;48.734;9.112;2022-12-05T09:39:01;96722.16;;;4.24;83.01
9525;BME280;15940;48.734;9.112;2022-12-05T09:42:05;96711.56;;;4.21;83.52
9525;BME280;15940;48.734;9.112;2022-12-05T09:44:48;96724.09;;;4.24;83.99
9525;BME280;15940;48.734;9.112;2022-12-05T09:47:31;96725.13;;;4.17;84.34
9525;BME280;15940;48.734;9.112;2022-12-05T09:50:10;96722.34;;;4.30;83.97
9525;BME280;15940;48.734;9.112;2022-12-05T09:52:44;96726.56;;;4.40;84.08
9525;BME280;15940;48.734;9.112;2022-12-05T09:55:18;96720.59;;;4.45;83.42
9525;BME280;15940;48.734;9.112;2022-12-05T09:57:51;96725.69;;;4.52;82.48
9525;BME280;15940;48.734;9.112;2022-12-05T10:00:19;96720.19;;;4.47;82.58
9525;BME280;15940;48.734;9.112;2022-12-05T10:02:57;96721.06;;;4.53;82.82
9525;BME280;15940;48.734;9.112;2022-12-05T10:05:30;96727.09;;;4.66;82.72
9525;BME280;15940;48.734;9.112;2022-12-05T10:08:11;96723.06;;;4.71;81.42
9525;BME280;15940;48.734;9.112;2022-12-05T10:10:51;96714.56;;;4.63;82.07
9525;BME280;15940;48.734;9.112;2022-12-05T10:13:36;96727.59;;;4.74;81.87
9525;BME280;15940;48.734;9.112;2022-12-05T10:16:10;96726.81;;;4.73;82.17
9525;BME280;15940;48.734;9.112;2022-12-05T10:18:42;96727.16;;;4.84;81.93
9525;BME280;15940;48.734;9.112;2022-12-05T10:21:15;96715.97;;;4.86;81.20
9525;BME280;15940;48.734;9.112;2022-12-05T10:23:53;96715.53;;;4.87;79.60
9525;BME280;15940;48.734;9.112;2022-12-05T10:26:25;96711.81;;;4.94;79.63
9525;BME280;15940;48.734;9.112;2022-12-05T10:28:59;96710.19;;;5.06;80.08
9525;BME280;15940;48.734;9.112;2022-12-05T10:31:32;96709.91;;;5.13;79.13
9525;BME280;15940;48.734;9.112;2022-12-05T10:34:05;96702.00;;;5.19;78.85
9525;BME280;15940;48.734;9.112;2022-12-05T10:36:36;96704.25;;;5.38;78.81
9525;BME280;15940;48.734;9.112;2022-12-05T10:39:04;96700.97;;;5.43;78.39
9525;BME280;15940;48.734;9.112;2022-12-05T10:41:31;96704.09;;;5.60;78.22
9525;BME280;15940;48.734;9.112;2022-12-05T10:43:59;96705.13;;;5.72;77.81
9525;BME280;15940;48.734;9.112;2022-12-05T10:46:26;96703.00;;;5.85;77.04
9525;BME280;15940;48.734;9.112;2022-12-05T10:48:54;96700.47;;;6.00;76.66
9525;BME280;15940;48.734;9.112;2022-12-05T10:51:27;96699.28;;;6.01;76.47
9525;BME280;15940;48.734;9.112;2022-12-05T10:53:55;96702.13;;;5.97;76.50
9525;BME280;15940;48.734;9.112;2022-12-05T10:56:38;96697.03;;;6.09;75.40
9525;BME280;15940;48.734;9.112;2022-12-05T10:59:08;96695.53;;;6.08;74.79
9525;BME280;15940;48.734;9.112;2022-12-05T11:01:36;96688.97;;;5.99;75.84
9525;BME280;15940;48.734;9.112;2022-12-05T11:04:20;96698.38;;;5.95;75.53
9525;BME280;15940;48.734;9.112;2022-12-05T11:06:55;96694.34;;;6.09;76.14
9525;BME280;15940;48.734;9.112;2022-12-05T11:09:25;96695.38;;;6.11;75.01
9525;BME280;15940;48.734;9.112;2022-12-05T11:12:17;96697.03;;;6.09;75.43
9525;BME280;15940;48.734;9.112;2022-12-05T11:15:05;96691.25;;;5.92;75.72
9525;BME280;15940;48.734;9.112;2022-12-05T11:17:35;96692.44;;;5.91;75.88
9525;BME280;15940;48.734;9.112;2022-12-05T11:22:55;96688.25;;;5.71;77.07
9525;BME280;15940;48.734;9.112;2022-12-05T11:25:28;96684.97;;;5.77;76.42
9525;BME280;15940;48.734;9.112;2022-12-05T11:27:58;96685.41;;;5.75;75.85
9525;BME280;15940;48.734;9.112;2022-12-05T11:30:27;96694.66;;;5.92;76.29
9525;BME280;15940;48.734;9.112;2022-12-05T11:33:10;96694.31;;;6.18;76.15
9525;BME280;15940;48.734;9.112;2022-12-05T11:35:38;96687.41;;;6.26;74.21
9525;BME280;15940;48.734;9.112;2022-12-05T11:38:05;96691.72;;;6.33;74.78
9525;BME280;15940;48.734;9.112;2022-12-05T11:40:38;96686.00;;;6.40;73.22
9525;BME280;15940;48.734;9.112;2022-12-05T11:43:48;96689.75;;;6.33;71.68
9525;BME280;15940;48.734;9.112;2022-12-05T11:46:30;96692.09;;;6.49;71.81
9525;BME280;15940;48.734;9.112;2022-12-05T11:49:16;96690.75;;;6.54;72.44
9525;BME280;15940;48.734;9.112;2022-12-05T11:51:55;96692.38;;;6.51;70.98
9525;BME280;15940;48.734;9.112;2022-12-05T11:54:45;96689.97;;;6.53;71.64
9525;BME280;15940;48.734;9.112;2022-12-05T11:57:28;96685.09;;;6.43;71.09
9525;BME280;15940;48.734;9.112;2022-12-05T12:00:14;96683.13;;;6.43;71.58
9525;BME280;15940;48.734;9.112;2022-12-05T12:03:18;96679.00;;;6.33;71.24
9525;BME280;15940;48.734;9.112;2022-12-05T12:06:06;96686.31;;;6.33;72.18
9525;BME280;15940;48.734;9.112;2022-12-05T12:08:49;96689.09;;;6.05;70.43
9525;BME280;15940;48.734;9.112;2022-12-05T12:11:26;96682.53;;;6.06;72.39
9525;BME280;15940;48.734;9.112;2022-12-05T12:14:04;96684.44;;;6.15;72.51
9525;BME280;15940;48.734;9.112;2022-12-05T12:16:48;96682.06;;;6.17;72.76
9525;BME280;15940;48.734;9.112;2022-12-05T12:19:44;96683.38;;;6.21;72.90
9525;BME280;15940;48.734;9.112;2022-12-05T12:22:39;96692.31;;;6.37;73.14
9525;BME280;15940;48.734;9.112;2022-12-05T12:25:26;96694.59;;;6.53;73.09
9525;BME280;15940;48.734;9.112;2022-12-05T12:28:08;96680.31;;;6.71;71.38
9525;BME280;15940;48.734;9.112;2022-12-05T12:31:01;96679.38;;;6.83;70.99
9525;BME280;15940;48.734;9.112;2022-12-05T12:33:36;96675.84;;;6.68;69.60
9525;BME280;15940;48.734;9.112;2022-12-05T12:36:15;96675.22;;;6.49;70.42
9525;BME280;15940;48.734;9.112;2022-12-05T12:39:07;96683.09;;;6.52;71.75
9525;BME280;15940;48.734;9.112;2022-12-05T12:41:50;96681.84;;;6.63;72.41
9525;BME280;15940;48.734;9.112;2022-12-05T12:44:55;96689.00;;;6.75;72.00
9525;BME280;15940;48.734;9.112;2022-12-05T12:47:37;96691.78;;;6.80;70.56
9525;BME280;15940;48.734;9.112;2022-12-05T12:50:15;96686.75;;;6.73;69.88
9525;BME280;15940;48.734;9.112;2022-12-05T12:53:07;96689.44;;;6.73;70.68
9525;BME280;15940;48.734;9.112;2022-12-05T12:55:43;96686.00;;;6.73;70.80
9525;BME280;15940;48.734;9.112;2022-12-05T12:58:31;96679.84;;;6.72;71.41
9525;BME280;15940;48.734;9.112;2022-12-05T13:01:11;96691.25;;;6.67;71.08
9525;BME280;15940;48.734;9.112;2022-12-05T13:03:48;96684.41;;;6.66;71.28
9525;BME280;15940;48.734;9.112;2022-12-05T13:06:25;96688.53;;;6.43;70.08
9525;BME280;15940;48.734;9.112;2022-12-05T13:08:59;96681.88;;;6.29;70.91
9525;BME280;15940;48.734;9.112;2022-12-05T13:11:30;96669.03;;;6.24;72.74
9525;BME280;15940;48.734;9.112;2022-12-05T13:14:01;96672.94;;;6.14;71.24
9525;BME280;15940;48.734;9.112;2022-12-05T13:16:33;96672.53;;;6.07;71.00
9525;BME280;15940;48.734;9.112;2022-12-05T13:19:05;96666.72;;;5.90;71.95
9525;BME280;15940;48.734;9.112;2022-12-05T13:21:34;96667.94;;;5.89;73.75
9525;BME280;15940;48.734;9.112;2022-12-05T13:24:02;96664.19;;;5.95;74.04
9525;BME280;15940;48.734;9.112;2022-12-05T13:26:31;96669.53;;;6.05;73.69
9525;BME280;15940;48.734;9.112;2022-12-05T13:29:03;96668.47;;;6.11;73.96
9525;BME280;15940;48.734;9.112;2022-12-05T13:31:36;96670.97;;;6.24;73.24
9525;BME280;15940;48.734;9.112;2022-12-05T13:34:04;96671.72;;;6.24;71.99
9525;BME280;15940;48.734;9.112;2022-12-05T13:36:39;96672.78;;;6.18;70.53
9525;BME280;15940;48.734;9.112;2022-12-05T13:39:24;96676.81;;;6.22;70.64
9525;BME280;15940;48.734;9.112;2022-12-05T13:42:20;96673.09;;;6.20;71.57
9525;BME280;15940;48.734;9.112;2022-12-05T13:44:51;96681.63;;;6.09;71.86
9525;BME280;15940;48.734;9.112;2022-12-05T13:47:29;96678.66;;;6.07;72.52
9525;BME280;15940;48.734;9.112;2022-12-05T13:50:07;96686.28;;;6.09;71.66
9525;BME280;15940;48.734;9.112;2022-12-05T13:52:45;96677.88;;;6.16;70.82
9525;BME280;15940;48.734;9.112;2022-12-05T13:55:21;96678.94;;;6.09;70.22